createdAt,value
2022-10-22T00:01:03.383Z,98296.53
2022-10-22T00:03:30.142Z,98310.63
2022-10-22T00:05:56.814Z,98303.53
2022-10-22T00:08:23.585Z,98296.75
2022-10-22T00:10:50.502Z,98288.13
2022-10-22T00:13:17.292Z,98280.25
2022-10-22T00:15:43.941Z,98285.53
2022-10-22T00:18:10.617Z,98292.13
2022-10-22T00:20:37.304Z,98282.69
2022-10-22T00:23:03.911Z,98295.53
2022-10-22T00:25:31.493Z,98280.38
2022-10-22T00:27:58.069Z,98272.72
2022-10-22T00:30:24.693Z,98281.91
2022-10-22T00:32:51.249Z,98277.53
2022-10-22T00:35:17.938Z,98274.50
2022-10-22T00:37:44.471Z,98268.88
2022-10-22T00:40:12.205Z,98271.19
2022-10-22T00:42:39.164Z,98267.00
2022-10-22T00:45:06.148Z,98273.81
2022-10-22T00:48:04.949Z,98266.31
2022-10-22T00:50:34.269Z,98261.84
2022-10-22T00:53:03.720Z,98255.97
2022-10-22T00:55:32.923Z,98254.91
2022-10-22T00:58:01.358Z,98255.84
2022-10-22T01:00:28.410Z,98254.78
2022-10-22T01:02:55.838Z,98265.72
2022-10-22T01:05:22.932Z,98256.84
2022-10-22T01:07:52.767Z,98248.28
2022-10-22T01:10:48.822Z,98268.81
2022-10-22T01:13:18.409Z,98248.34
2022-10-22T01:16:13.725Z,98245.97
2022-10-22T01:19:09.199Z,98235.34
2022-10-22T01:21:51.890Z,98234.75
2022-10-22T01:24:36.954Z,98233.94
2022-10-22T01:27:23.812Z,98243.63
2022-10-22T01:30:11.168Z,98245.88
2022-10-22T01:32:49.233Z,98251.06
2022-10-22T01:35:22.028Z,98250.22
2022-10-22T01:37:57.722Z,98244.38
2022-10-22T01:40:26.240Z,98250.47
2022-10-22T01:42:57.492Z,98253.31
2022-10-22T01:45:24.720Z,98256.84
2022-10-22T01:47:54.190Z,98250.88
2022-10-22T01:50:29.013Z,98236.25
2022-10-22T01:53:19.002Z,98234.25
2022-10-22T01:56:23.041Z,98235.53
2022-10-22T01:59:03.683Z,98235.28
2022-10-22T02:01:39.401Z,98239.69
2022-10-22T02:04:47.887Z,98230.84
2022-10-22T02:07:19.157Z,98226.97
2022-10-22T02:09:46.856Z,98238.72
2022-10-22T02:12:14.946Z,98240.25
2022-10-22T02:14:44.086Z,98236.84
2022-10-22T02:17:16.081Z,98227.31
2022-10-22T02:19:52.982Z,98230.16
2022-10-22T02:22:20.368Z,98229.09
2022-10-22T02:24:48.392Z,98225.09
2022-10-22T02:27:32.988Z,98235.28
2022-10-22T02:30:11.747Z,98248.22
2022-10-22T02:32:50.056Z,98245.97
2022-10-22T02:35:21.009Z,98245.13
2022-10-22T02:37:49.693Z,98252.72
2022-10-22T02:40:17.207Z,98251.69
2022-10-22T02:42:46.276Z,98248.88
2022-10-22T02:45:12.877Z,98243.56
2022-10-22T02:47:39.519Z,98247.34
2022-10-22T02:50:09.532Z,98251.19
2022-10-22T02:52:38.248Z,98260.59
2022-10-22T02:55:06.138Z,98253.06
2022-10-22T02:57:33.599Z,98242.97
2022-10-22T03:00:00.212Z,98252.38
2022-10-22T03:02:26.870Z,98256.72
2022-10-22T03:04:53.514Z,98251.53
2022-10-22T03:07:20.205Z,98255.22
2022-10-22T03:09:47.030Z,98263.69
2022-10-22T03:12:13.724Z,98260.84
2022-10-22T03:14:40.340Z,98261.91
2022-10-22T03:17:07.042Z,98263.00
2022-10-22T03:19:33.593Z,98260.41
2022-10-22T03:22:05.484Z,98263.69
2022-10-22T03:24:36.767Z,98262.16
2022-10-22T03:27:03.411Z,98261.22
2022-10-22T03:29:33.836Z,98260.03
2022-10-22T03:32:00.554Z,98273.53
2022-10-22T03:34:31.261Z,98266.16
2022-10-22T03:36:59.517Z,98268.59
2022-10-22T03:39:28.958Z,98271.06
2022-10-22T03:41:56.158Z,98279.94
2022-10-22T03:44:24.394Z,98278.28
2022-10-22T03:46:51.080Z,98271.44
2022-10-22T03:49:17.732Z,98273.47
2022-10-22T03:51:44.409Z,98274.28
2022-10-22T03:54:11.039Z,98277.13
2022-10-22T03:56:37.765Z,98289.03
2022-10-22T03:59:04.900Z,98271.97
2022-10-22T04:01:31.718Z,98283.84
2022-10-22T04:03:58.767Z,98291.91
2022-10-22T04:06:25.702Z,98289.44
2022-10-22T04:08:52.334Z,98290.84
2022-10-22T04:11:19.061Z,98280.03
2022-10-22T04:13:45.700Z,98282.41
2022-10-22T04:16:18.944Z,98285.13
2022-10-22T04:18:47.199Z,98285.13
2022-10-22T04:21:16.505Z,98285.13
2022-10-22T04:23:48.173Z,98283.59
2022-10-22T04:26:16.017Z,98287.56
2022-10-22T04:28:43.099Z,98285.66
2022-10-22T04:31:11.684Z,98280.75
2022-10-22T04:33:38.634Z,98284.88
2022-10-22T04:36:12.900Z,98292.25
2022-10-22T04:38:40.836Z,98298.25
2022-10-22T04:41:19.526Z,98295.66
2022-10-22T04:43:46.777Z,98292.38
2022-10-22T04:46:14.755Z,98297.69
2022-10-22T04:48:43.281Z,98297.69
2022-10-22T04:51:13.308Z,98297.81
2022-10-22T04:53:42.767Z,98295.22
2022-10-22T04:56:16.338Z,98296.84
2022-10-22T04:58:44.039Z,98290.97
2022-10-22T05:01:19.746Z,98295.34
2022-10-22T05:03:48.172Z,98293.56
2022-10-22T05:06:15.403Z,98294.50
2022-10-22T05:08:43.550Z,98299.00
2022-10-22T05:11:15.277Z,98296.41
2022-10-22T05:13:41.943Z,98295.56
2022-10-22T05:16:08.911Z,98291.22
2022-10-22T05:18:39.409Z,98290.59
2022-10-22T05:21:14.086Z,98291.31
2022-10-22T05:23:41.014Z,98289.53
2022-10-22T05:26:10.108Z,98292.25
2022-10-22T05:28:37.261Z,98291.31
2022-10-22T05:31:06.254Z,98299.34
2022-10-22T05:33:34.184Z,98304.94
2022-10-22T05:36:01.932Z,98310.47
2022-10-22T05:38:28.998Z,98319.63
2022-10-22T05:41:07.578Z,98319.63
2022-10-22T05:43:34.628Z,98319.63
2022-10-22T05:46:12.121Z,98309.75
2022-10-22T05:48:39.044Z,98322.59
2022-10-22T05:51:13.513Z,98318.50
2022-10-22T05:53:42.244Z,98328.72
2022-10-22T05:56:16.320Z,98326.69
2022-10-22T05:58:44.442Z,98336.81
2022-10-22T06:01:22.784Z,98334.13
2022-10-22T06:03:52.612Z,98342.81
2022-10-22T06:06:30.426Z,98341.03
2022-10-22T06:09:02.264Z,98348.13
2022-10-22T06:11:32.521Z,98349.31
2022-10-22T06:14:01.727Z,98360.75
2022-10-22T06:16:31.996Z,98359.34
2022-10-22T06:19:01.819Z,98357.47
2022-10-22T06:21:29.778Z,98365.81
2022-10-22T06:23:58.095Z,98369.34
2022-10-22T06:26:24.816Z,98371.00
2022-10-22T06:28:51.460Z,98376.91
2022-10-22T06:31:18.160Z,98374.31
2022-10-22T06:33:44.822Z,98380.91
2022-10-22T06:36:17.086Z,98384.19
2022-10-22T06:38:43.869Z,98388.66
2022-10-22T06:41:15.828Z,98393.63
2022-10-22T06:43:47.017Z,98393.38
2022-10-22T06:46:19.102Z,98389.72
2022-10-22T06:48:58.111Z,98399.25
2022-10-22T06:51:25.211Z,98399.13
2022-10-22T06:53:51.770Z,98396.06
2022-10-22T06:56:20.768Z,98405.38
2022-10-22T06:58:49.068Z,98399.38
2022-10-22T07:01:17.606Z,98393.00
2022-10-22T07:03:44.332Z,98398.69
2022-10-22T07:06:13.735Z,98405.44
2022-10-22T07:08:41.673Z,98405.19
2022-10-22T07:11:09.665Z,98407.75
2022-10-22T07:13:37.023Z,98407.25
2022-10-22T07:16:06.036Z,98413.38
2022-10-22T07:18:33.487Z,98421.75
2022-10-22T07:21:00.845Z,98415.50
2022-10-22T07:23:28.865Z,98415.25
2022-10-22T07:28:23.234Z,98409.81
2022-10-22T07:30:49.936Z,98416.41
2022-10-22T07:33:16.794Z,98421.09
2022-10-22T07:35:43.616Z,98428.88
2022-10-22T07:38:10.445Z,98433.13
2022-10-22T07:40:37.424Z,98434.28
2022-10-22T07:43:04.617Z,98435.94
2022-10-22T07:45:31.380Z,98444.03
2022-10-22T07:47:59.538Z,98444.59
2022-10-22T07:50:26.929Z,98442.72
2022-10-22T07:52:56.024Z,98445.56
2022-10-22T07:55:24.238Z,98444.59
2022-10-22T07:57:50.921Z,98450.75
2022-10-22T08:00:20.446Z,98456.88
2022-10-22T08:02:49.922Z,98460.63
2022-10-22T08:05:16.683Z,98443.06
2022-10-22T08:07:43.385Z,98441.06
2022-10-22T08:10:11.715Z,98440.13
2022-10-22T08:12:39.843Z,98448.84
2022-10-22T08:15:07.415Z,98451.44
2022-10-22T08:17:34.191Z,98460.03
2022-10-22T08:20:00.834Z,98467.94
2022-10-22T08:22:27.587Z,98471.38
2022-10-22T08:24:54.165Z,98472.88
2022-10-22T08:27:20.900Z,98470.63
2022-10-22T08:29:47.446Z,98474.25
2022-10-22T08:32:14.558Z,98476.84
2022-10-22T08:34:41.324Z,98484.41
2022-10-22T08:37:08.562Z,98486.03
2022-10-22T08:39:35.580Z,98486.41
2022-10-22T08:42:15.686Z,98487.22
2022-10-22T08:45:03.431Z,98499.13
2022-10-22T08:47:54.709Z,98507.16
2022-10-22T08:50:32.762Z,98500.06
2022-10-22T08:53:05.499Z,98489.13
2022-10-22T08:55:37.282Z,98493.69
2022-10-22T08:58:16.100Z,98506.53
2022-10-22T09:00:46.237Z,98505.72
2022-10-22T09:03:37.176Z,98500.19
2022-10-22T09:06:18.701Z,98496.28
2022-10-22T09:08:47.443Z,98498.53
2022-10-22T09:11:26.552Z,98493.34
2022-10-22T09:13:55.105Z,98483.41
2022-10-22T09:16:34.343Z,98508.19
2022-10-22T09:19:13.238Z,98492.97
2022-10-22T09:22:17.543Z,98490.94
2022-10-22T09:24:58.793Z,98500.13
2022-10-22T09:27:30.718Z,98496.78
2022-10-22T09:29:57.603Z,98501.72
2022-10-22T09:32:25.338Z,98502.75
2022-10-22T09:34:56.367Z,98508.13
2022-10-22T09:37:27.531Z,98514.31
2022-10-22T09:39:56.756Z,98518.19
2022-10-22T09:42:23.695Z,98518.97
2022-10-22T09:44:56.632Z,98527.75
2022-10-22T09:47:43.042Z,98510.53
2022-10-22T09:50:38.220Z,98512.63
2022-10-22T09:53:11.269Z,98520.97
2022-10-22T09:55:40.525Z,98523.19
2022-10-22T09:58:13.093Z,98523.06
2022-10-22T10:00:43.537Z,98530.03
2022-10-22T10:03:18.394Z,98527.13
2022-10-22T10:05:49.419Z,98522.63
2022-10-22T10:08:17.819Z,98527.91
2022-10-22T10:10:54.807Z,98527.63
2022-10-22T10:13:36.510Z,98529.03
2022-10-22T10:16:13.465Z,98533.25
2022-10-22T10:18:43.456Z,98533.81
2022-10-22T10:21:24.094Z,98518.94
2022-10-22T10:24:13.631Z,98526.16
2022-10-22T10:26:49.123Z,98525.72
2022-10-22T10:29:26.490Z,98524.09
2022-10-22T10:32:24.814Z,98526.91
2022-10-22T10:35:03.531Z,98533.25
2022-10-22T10:37:38.404Z,98527.50
2022-10-22T10:40:16.928Z,98536.28
2022-10-22T10:42:51.786Z,98532.75
2022-10-22T10:45:42.810Z,98535.22
2022-10-22T10:48:43.876Z,98536.75
2022-10-22T10:51:46.922Z,98540.63
2022-10-22T10:54:55.373Z,98530.47
2022-10-22T10:57:43.980Z,98525.72
2022-10-22T11:00:21.359Z,98536.34
2022-10-22T11:03:22.034Z,98535.53
2022-10-22T11:05:54.271Z,98532.44
2022-10-22T11:08:27.283Z,98529.03
2022-10-22T11:11:01.405Z,98519.19
2022-10-22T11:13:36.190Z,98532.91
2022-10-22T11:16:14.267Z,98533.72
2022-10-22T11:18:47.749Z,98523.44
2022-10-22T11:21:30.698Z,98526.03
2022-10-22T11:24:03.201Z,98526.38
2022-10-22T11:26:30.269Z,98525.38
2022-10-22T11:29:01.609Z,98529.38
2022-10-22T11:31:31.002Z,98524.56
2022-10-22T11:34:32.218Z,98527.16
2022-10-22T11:36:58.991Z,98528.97
2022-10-22T11:39:48.973Z,98526.91
2022-10-22T11:42:21.462Z,98525.03
2022-10-22T11:44:59.785Z,98525.56
2022-10-22T11:47:58.864Z,98530.00
2022-10-22T11:50:43.456Z,98522.06
2022-10-22T11:53:13.078Z,98518.25
2022-10-22T11:55:55.436Z,98515.66
2022-10-22T11:58:28.144Z,98520.22
2022-10-22T12:00:55.736Z,98508.59
2022-10-22T12:03:31.338Z,98515.31
2022-10-22T12:06:13.246Z,98515.44
2022-10-22T12:08:48.808Z,98519.97
2022-10-22T12:11:20.339Z,98518.91
2022-10-22T12:13:49.994Z,98522.59
2022-10-22T12:16:23.604Z,98520.81
2022-10-22T12:19:13.870Z,98515.63
2022-10-22T12:21:43.579Z,98510.28
2022-10-22T12:24:15.582Z,98517.31
2022-10-22T12:26:42.289Z,98515.81
2022-10-22T12:29:15.847Z,98516.47
2022-10-22T12:31:44.759Z,98512.09
2022-10-22T12:34:17.328Z,98516.59
2022-10-22T12:36:44.894Z,98508.00
2022-10-22T12:39:15.856Z,98508.44
2022-10-22T12:41:43.478Z,98500.88
2022-10-22T12:44:13.605Z,98499.41
2022-10-22T12:46:41.772Z,98491.72
2022-10-22T12:49:15.574Z,98493.22
2022-10-22T12:51:42.942Z,98493.63
2022-10-22T12:54:18.311Z,98487.75
2022-10-22T12:56:47.454Z,98485.69
2022-10-22T12:59:21.016Z,98489.00
2022-10-22T13:01:50.351Z,98484.31
2022-10-22T13:04:16.991Z,98490.59
2022-10-22T13:06:46.274Z,98488.16
2022-10-22T13:09:23.910Z,98487.88
2022-10-22T13:11:55.994Z,98485.25
2022-10-22T13:14:29.400Z,98490.88
2022-10-22T13:17:18.324Z,98481.03
2022-10-22T13:19:52.578Z,98479.25
2022-10-22T13:22:39.465Z,98482.66
2022-10-22T13:25:14.958Z,98479.41
2022-10-22T13:28:07.584Z,98485.25
2022-10-22T13:30:36.578Z,98481.44
2022-10-22T13:33:22.781Z,98482.53
2022-10-22T13:35:49.758Z,98482.66
2022-10-22T13:38:20.681Z,98481.72
2022-10-22T13:40:47.629Z,98480.31
2022-10-22T13:43:14.400Z,98485.53
2022-10-22T13:45:41.544Z,98487.97
2022-10-22T13:48:21.831Z,98485.38
2022-10-22T13:50:50.080Z,98493.97
2022-10-22T13:53:20.666Z,98487.53
2022-10-22T13:55:47.655Z,98485.97
2022-10-22T13:58:19.168Z,98482.66
2022-10-22T14:00:49.633Z,98482.66
2022-10-22T14:03:19.326Z,98485.41
2022-10-22T14:05:47.615Z,98490.53
2022-10-22T14:08:17.048Z,98489.00
2022-10-22T14:10:44.002Z,98488.28
2022-10-22T14:13:11.419Z,98484.44
2022-10-22T14:15:38.647Z,98483.13
2022-10-22T14:18:07.096Z,98487.59
2022-10-22T14:20:39.990Z,98495.06
2022-10-22T14:23:19.865Z,98499.41
2022-10-22T14:25:47.084Z,98498.03
2022-10-22T14:28:14.148Z,98495.13
2022-10-22T14:30:41.302Z,98490.56
2022-10-22T14:33:32.568Z,98499.38
2022-10-22T14:36:00.677Z,98501.28
2022-10-22T14:38:27.950Z,98499.53
2022-10-22T14:40:55.204Z,98499.66
2022-10-22T14:43:27.660Z,98506.00
2022-10-22T14:45:54.979Z,98507.59
2022-10-22T14:48:21.562Z,98505.09
2022-10-22T14:50:48.748Z,98503.59
2022-10-22T14:53:17.018Z,98510.16
2022-10-22T14:55:44.713Z,98516.97
2022-10-22T14:58:12.318Z,98515.78
2022-10-22T15:00:42.105Z,98511.41
2022-10-22T15:03:09.002Z,98517.88
2022-10-22T15:05:36.657Z,98515.72
2022-10-22T15:08:03.509Z,98520.91
2022-10-22T15:10:30.136Z,98527.38
2022-10-22T15:12:56.698Z,98529.69
2022-10-22T15:15:24.578Z,98532.59
2022-10-22T15:17:52.187Z,98534.47
2022-10-22T15:20:18.857Z,98548.31
2022-10-22T15:22:45.537Z,98544.25
2022-10-22T15:25:13.604Z,98543.97
2022-10-22T15:27:40.687Z,98549.63
2022-10-22T15:30:08.623Z,98543.47
2022-10-22T15:32:35.296Z,98556.81
2022-10-22T15:35:02.413Z,98551.91
2022-10-22T15:37:29.052Z,98552.31
2022-10-22T15:39:55.678Z,98554.66
2022-10-22T15:42:23.847Z,98547.69
2022-10-22T15:44:59.122Z,98558.78
2022-10-22T15:47:29.363Z,98561.41
2022-10-22T15:49:56.037Z,98566.88
2022-10-22T15:52:22.644Z,98572.53
2022-10-22T15:54:49.305Z,98566.09
2022-10-22T15:57:15.860Z,98573.06
2022-10-22T15:59:42.572Z,98568.41
2022-10-22T16:02:10.967Z,98567.44
2022-10-22T16:04:38.442Z,98572.91
2022-10-22T16:07:05.160Z,98574.72
2022-10-22T16:09:31.798Z,98572.34
2022-10-22T16:11:58.376Z,98575.06
2022-10-22T16:14:25.558Z,98573.25
2022-10-22T16:16:54.036Z,98573.38
2022-10-22T16:19:22.705Z,98584.59
2022-10-22T16:21:54.733Z,98583.47
2022-10-22T16:24:22.047Z,98587.25
2022-10-22T16:26:49.550Z,98594.38
2022-10-22T16:29:16.534Z,98596.84
2022-10-22T16:31:43.952Z,98595.59
2022-10-22T16:34:11.631Z,98598.72
2022-10-22T16:36:38.876Z,98598.44
2022-10-22T16:39:06.091Z,98608.00
2022-10-22T16:41:35.290Z,98611.22
2022-10-22T16:44:05.479Z,98615.59
2022-10-22T16:46:33.246Z,98616.28
2022-10-22T16:49:00.412Z,98616.28
2022-10-22T16:51:28.584Z,98627.63
2022-10-22T16:53:56.888Z,98632.81
2022-10-22T16:56:24.886Z,98637.72
2022-10-22T16:58:56.748Z,98648.94
2022-10-22T17:01:29.683Z,98656.03
2022-10-22T17:03:59.456Z,98656.97
2022-10-22T17:06:26.583Z,98659.25
2022-10-22T17:08:53.770Z,98665.16
2022-10-22T17:11:23.203Z,98674.03
2022-10-22T17:13:52.684Z,98677.63
2022-10-22T17:16:22.568Z,98682.94
2022-10-22T17:18:49.298Z,98676.34
2022-10-22T17:21:16.737Z,98681.69
2022-10-22T17:23:44.260Z,98689.22
2022-10-22T17:26:17.411Z,98694.28
2022-10-22T17:28:44.398Z,98696.88
2022-10-22T17:31:11.008Z,98697.34
2022-10-22T17:33:37.779Z,98693.22
2022-10-22T17:36:10.791Z,98699.28
2022-10-22T17:38:38.867Z,98711.19
2022-10-22T17:41:07.477Z,98716.59
2022-10-22T17:43:37.956Z,98712.59
2022-10-22T17:46:11.139Z,98716.66
2022-10-22T17:48:37.825Z,98716.66
2022-10-22T17:51:07.986Z,98723.88
2022-10-22T17:53:34.857Z,98723.28
2022-10-22T17:56:03.364Z,98722.47
2022-10-22T17:58:30.808Z,98730.59
2022-10-22T18:00:58.573Z,98733.53
2022-10-22T18:03:27.801Z,98734.97
2022-10-22T18:05:54.982Z,98734.16
2022-10-22T18:08:25.502Z,98738.06
2022-10-22T18:10:52.223Z,98743.38
2022-10-22T18:13:18.905Z,98733.94
2022-10-22T18:15:45.656Z,98740.06
2022-10-22T18:18:12.310Z,98744.44
2022-10-22T18:20:38.972Z,98752.22
2022-10-22T18:23:05.880Z,98759.28
2022-10-22T18:25:32.689Z,98756.81
2022-10-22T18:27:59.286Z,98769.34
2022-10-22T18:30:25.935Z,98770.66
2022-10-22T18:32:52.534Z,98775.13
2022-10-22T18:35:19.129Z,98776.41
2022-10-22T18:37:45.742Z,98779.38
2022-10-22T18:40:14.556Z,98786.22
2022-10-22T18:42:41.841Z,98788.81
2022-10-22T18:45:09.288Z,98799.19
2022-10-22T18:47:39.910Z,98796.59
2022-10-22T18:50:06.949Z,98798.34
2022-10-22T18:52:33.975Z,98803.31
2022-10-22T18:55:00.702Z,98808.03
2022-10-22T18:57:27.288Z,98809.44
2022-10-22T18:59:55.919Z,98807.78
2022-10-22T19:02:25.425Z,98810.75
2022-10-22T19:04:51.976Z,98808.72
2022-10-22T19:07:18.559Z,98808.84
2022-10-22T19:09:45.110Z,98810.38
2022-10-22T19:12:14.965Z,98814.41
2022-10-22T19:14:42.445Z,98811.44
2022-10-22T19:17:09.340Z,98810.13
2022-10-22T19:19:35.997Z,98811.53
2022-10-22T19:22:02.610Z,98806.63
2022-10-22T19:24:29.372Z,98810.97
2022-10-22T19:26:56.154Z,98801.19
2022-10-22T19:29:22.784Z,98801.97
2022-10-22T19:31:51.012Z,98804.91
2022-10-22T19:34:18.109Z,98811.78
2022-10-22T19:36:44.811Z,98815.81
2022-10-22T19:39:15.098Z,98817.91
2022-10-22T19:41:41.890Z,98809.44
2022-10-22T19:44:09.648Z,98829.13
2022-10-22T19:46:36.377Z,98820.63
2022-10-22T19:49:04.672Z,98832.53
2022-10-22T19:51:33.416Z,98834.19
2022-10-22T19:54:02.990Z,98845.50
2022-10-22T19:56:30.384Z,98851.03
2022-10-22T19:58:57.208Z,98850.19
2022-10-22T20:01:24.550Z,98849.97
2022-10-22T20:03:51.757Z,98844.53
2022-10-22T20:06:19.622Z,98839.81
2022-10-22T20:08:46.775Z,98843.25
2022-10-22T20:11:22.167Z,98846.06
2022-10-22T20:13:52.181Z,98842.66
2022-10-22T20:16:23.239Z,98849.59
2022-10-22T20:18:50.920Z,98846.41
2022-10-22T20:21:19.247Z,98848.06
2022-10-22T20:23:47.032Z,98855.50
2022-10-22T20:26:13.911Z,98850.19
2022-10-22T20:28:40.525Z,98855.72
2022-10-22T20:31:16.013Z,98851.72
2022-10-22T20:33:42.853Z,98849.88
2022-10-22T20:36:20.415Z,98847.13
2022-10-22T20:38:48.288Z,98853.75
2022-10-22T20:41:21.314Z,98859.63
2022-10-22T20:43:49.931Z,98853.25
2022-10-22T20:46:19.446Z,98861.16
2022-10-22T20:48:47.104Z,98857.75
2022-10-22T20:51:14.108Z,98861.72
2022-10-22T20:53:40.984Z,98863.16
2022-10-22T20:56:07.644Z,98859.75
2022-10-22T20:58:34.322Z,98866.09
2022-10-22T21:01:09.352Z,98870.81
2022-10-22T21:03:39.540Z,98878.72
2022-10-22T21:06:06.402Z,98872.09
2022-10-22T21:08:33.030Z,98873.28
2022-10-22T21:10:59.693Z,98866.97
2022-10-22T21:13:26.290Z,98861.97
2022-10-22T21:15:53.028Z,98864.31
2022-10-22T21:18:19.729Z,98877.66
2022-10-22T21:20:46.408Z,98876.47
2022-10-22T21:23:13.171Z,98880.09
2022-10-22T21:25:42.073Z,98885.19
2022-10-22T21:28:10.962Z,98889.06
2022-10-22T21:30:44.836Z,98896.72
2022-10-22T21:33:11.590Z,98891.44
2022-10-22T21:35:38.218Z,98903.94
2022-10-22T21:38:07.718Z,98900.97
2022-10-22T21:40:37.052Z,98912.38
2022-10-22T21:43:03.812Z,98902.94
2022-10-22T21:45:30.382Z,98915.47
2022-10-22T21:47:57.200Z,98908.94
2022-10-22T21:50:23.752Z,98911.66
2022-10-22T21:52:50.398Z,98916.91
2022-10-22T21:55:17.037Z,98915.38
2022-10-22T21:57:44.044Z,98914.13
2022-10-22T22:00:11.630Z,98915.06
2022-10-22T22:02:45.506Z,98913.63
2022-10-22T22:05:12.242Z,98914.47
2022-10-22T22:07:39.305Z,98911.66
2022-10-22T22:10:06.736Z,98914.25
2022-10-22T22:12:33.346Z,98912.59
2022-10-22T22:15:00.038Z,98910.44
2022-10-22T22:17:27.000Z,98902.78
2022-10-22T22:19:53.761Z,98899.84
2022-10-22T22:22:20.308Z,98901.63
2022-10-22T22:24:47.150Z,98900.47
2022-10-22T22:27:17.154Z,98904.53
2022-10-22T22:29:44.065Z,98911.38
2022-10-22T22:32:14.165Z,98913.97
2022-10-22T22:34:40.982Z,98918.63
2022-10-22T22:37:08.097Z,98903.88
2022-10-22T22:39:34.684Z,98909.88
2022-10-22T22:42:01.774Z,98909.16
2022-10-22T22:44:28.591Z,98906.81
2022-10-22T22:46:55.151Z,98908.56
2022-10-22T22:49:22.140Z,98900.91
2022-10-22T22:51:49.186Z,98907.34
2022-10-22T22:54:15.793Z,98894.41
2022-10-22T22:56:42.413Z,98897.72
2022-10-22T22:59:11.030Z,98896.22
2022-10-22T23:01:39.640Z,98902.44
2022-10-22T23:04:07.659Z,98896.63
2022-10-22T23:06:37.086Z,98893.13
2022-10-22T23:09:09.451Z,98898.31
2022-10-22T23:11:36.432Z,98897.97
2022-10-22T23:14:06.525Z,98908.19
2022-10-22T23:16:36.803Z,98908.75
2022-10-22T23:19:05.095Z,98908.22
2022-10-22T23:21:36.675Z,98904.00
2022-10-22T23:24:08.448Z,98902.22
2022-10-22T23:26:38.229Z,98895.03
2022-10-22T23:29:07.708Z,98898.44
2022-10-22T23:31:34.705Z,98905.63
2022-10-22T23:34:01.426Z,98905.56
2022-10-22T23:36:28.648Z,98892.59
2022-10-22T23:38:55.759Z,98905.22
2022-10-22T23:41:22.556Z,98909.34
2022-10-22T23:43:50.382Z,98912.38
2022-10-22T23:46:17.282Z,98913.00
2022-10-22T23:48:43.929Z,98909.91
2022-10-22T23:51:15.782Z,98904.22
2022-10-22T23:53:44.907Z,98905.50
2022-10-22T23:56:15.378Z,98896.19
2022-10-22T23:58:42.805Z,98885.94
